Pittsburgh, Pennsylvania
Traffic Map
Current Weather Conditions
Pittsburgh, Pennsylvania
Clear
Clear
25°
Feels Like: 25°
Wind Chill: 25° Ceiling: Unl
Heat Index: 25° Visibility: 10mi
Dew Point: Wind: 0mph
Humidity: 33% Direction: ° ()
Pressure: 30.15in Gusts: 0mph
Raw Report DataKAGC 282153Z AUTO 00000KT 10SM CLR 25/08 A3015 RMK AO2 SLP208 T02500078 TSNO
Traffic Incident Summary
Active as of:
Severity:
Category:
InformationThere was an issue retrieving the traffic information for this location. Please try a different location or try again shortly.
Advertisements
Track Severe Weather on mobile